sensor_id;sensor_type;location;lat;lon;timestamp;temperature;humidity
23540;DHT22;11947;50.810;4.394;2023-03-24T00:00:07;12.20;99.90
23540;DHT22;11947;50.810;4.394;2023-03-24T00:02:38;12.20;99.90
23540;DHT22;11947;50.810;4.394;2023-03-24T00:05:10;12.10;99.90
23540;DHT22;11947;50.810;4.394;2023-03-24T00:07:36;12.10;99.90
23540;DHT22;11947;50.810;4.394;2023-03-24T00:10:04;12.20;99.90
23540;DHT22;11947;50.810;4.394;2023-03-24T00:12:30;12.20;99.90
23540;DHT22;11947;50.810;4.394;2023-03-24T00:14:57;12.10;99.90
23540;DHT22;11947;50.810;4.394;2023-03-24T00:17:26;12.20;99.90
23540;DHT22;11947;50.810;4.394;2023-03-24T00:19:53;12.10;99.90
23540;DHT22;11947;50.810;4.394;2023-03-24T00:22:20;12.10;99.90
23540;DHT22;11947;50.810;4.394;2023-03-24T00:24:46;12.10;99.90
23540;DHT22;11947;50.810;4.394;2023-03-24T00:27:12;12.10;99.90
23540;DHT22;11947;50.810;4.394;2023-03-24T00:29:40;12.30;99.90
23540;DHT22;11947;50.810;4.394;2023-03-24T00:32:06;12.30;99.90
23540;DHT22;11947;50.810;4.394;2023-03-24T00:34:32;12.40;99.90
23540;DHT22;11947;50.810;4.394;2023-03-24T00:37:05;12.30;99.90
23540;DHT22;11947;50.810;4.394;2023-03-24T00:39:32;12.30;99.90
23540;DHT22;11947;50.810;4.394;2023-03-24T00:41:57;12.30;99.90
23540;DHT22;11947;50.810;4.394;2023-03-24T00:44:24;12.30;99.90
23540;DHT22;11947;50.810;4.394;2023-03-24T00:46:51;12.30;99.90
23540;DHT22;11947;50.810;4.394;2023-03-24T00:49:25;12.40;99.90
23540;DHT22;11947;50.810;4.394;2023-03-24T00:52:09;12.40;99.90
23540;DHT22;11947;50.810;4.394;2023-03-24T00:54:35;12.30;99.90
23540;DHT22;11947;50.810;4.394;2023-03-24T00:57:02;12.40;99.90
23540;DHT22;11947;50.810;4.394;2023-03-24T00:59:28;12.40;99.90
23540;DHT22;11947;50.810;4.394;2023-03-24T01:01:54;12.30;99.90
23540;DHT22;11947;50.810;4.394;2023-03-24T01:04:21;12.40;99.90
23540;DHT22;11947;50.810;4.394;2023-03-24T01:06:51;12.50;99.90
23540;DHT22;11947;50.810;4.394;2023-03-24T01:09:17;12.50;99.90
23540;DHT22;11947;50.810;4.394;2023-03-24T01:11:46;12.40;99.90
23540;DHT22;11947;50.810;4.394;2023-03-24T01:14:12;12.60;99.90
23540;DHT22;11947;50.810;4.394;2023-03-24T01:16:39;12.60;99.90
23540;DHT22;11947;50.810;4.394;2023-03-24T01:19:06;12.50;99.90
23540;DHT22;11947;50.810;4.394;2023-03-24T01:21:34;12.70;99.90
23540;DHT22;11947;50.810;4.394;2023-03-24T01:24:01;12.70;99.90
23540;DHT22;11947;50.810;4.394;2023-03-24T01:26:28;12.70;99.90
23540;DHT22;11947;50.810;4.394;2023-03-24T01:28:53;12.70;99.90
23540;DHT22;11947;50.810;4.394;2023-03-24T01:31:19;12.80;99.90
23540;DHT22;11947;50.810;4.394;2023-03-24T01:33:45;12.70;99.90
23540;DHT22;11947;50.810;4.394;2023-03-24T01:36:10;12.70;99.90
23540;DHT22;11947;50.810;4.394;2023-03-24T01:38:36;12.70;99.90
23540;DHT22;11947;50.810;4.394;2023-03-24T01:41:05;12.70;99.90
23540;DHT22;11947;50.810;4.394;2023-03-24T01:43:32;12.70;99.90
23540;DHT22;11947;50.810;4.394;2023-03-24T01:51:06;12.80;99.90
23540;DHT22;11947;50.810;4.394;2023-03-24T01:53:35;12.90;99.90
23540;DHT22;11947;50.810;4.394;2023-03-24T01:56:02;13.00;99.90
23540;DHT22;11947;50.810;4.394;2023-03-24T01:58:30;13.00;99.90
23540;DHT22;11947;50.810;4.394;2023-03-24T02:00:57;13.00;99.90
23540;DHT22;11947;50.810;4.394;2023-03-24T02:03:24;13.00;99.90
23540;DHT22;11947;50.810;4.394;2023-03-24T02:05:52;13.00;99.90
23540;DHT22;11947;50.810;4.394;2023-03-24T02:11:08;13.00;99.90
23540;DHT22;11947;50.810;4.394;2023-03-24T02:13:33;13.00;99.90
23540;DHT22;11947;50.810;4.394;2023-03-24T02:18:46;12.90;99.90
23540;DHT22;11947;50.810;4.394;2023-03-24T02:30:12;12.70;99.90
23540;DHT22;11947;50.810;4.394;2023-03-24T02:46:43;11.90;99.90
23540;DHT22;11947;50.810;4.394;2023-03-24T02:49:29;11.70;99.90
23540;DHT22;11947;50.810;4.394;2023-03-24T03:00:07;11.20;99.90
23540;DHT22;11947;50.810;4.394;2023-03-24T03:02:38;11.20;99.90
23540;DHT22;11947;50.810;4.394;2023-03-24T03:05:10;11.20;99.90
23540;DHT22;11947;50.810;4.394;2023-03-24T03:07:40;11.20;99.90
23540;DHT22;11947;50.810;4.394;2023-03-24T03:10:14;11.20;99.90
23540;DHT22;11947;50.810;4.394;2023-03-24T03:12:41;11.20;99.90
23540;DHT22;11947;50.810;4.394;2023-03-24T03:15:15;11.10;99.90
23540;DHT22;11947;50.810;4.394;2023-03-24T03:20:41;11.10;99.90
23540;DHT22;11947;50.810;4.394;2023-03-24T03:23:12;11.00;99.90
23540;DHT22;11947;50.810;4.394;2023-03-24T03:25:45;11.00;99.90
23540;DHT22;11947;50.810;4.394;2023-03-24T03:28:17;10.80;99.90
23540;DHT22;11947;50.810;4.394;2023-03-24T03:30:50;10.80;99.90
23540;DHT22;11947;50.810;4.394;2023-03-24T03:33:41;10.70;99.90
23540;DHT22;11947;50.810;4.394;2023-03-24T03:38:48;10.70;99.90
23540;DHT22;11947;50.810;4.394;2023-03-24T03:41:15;10.70;99.90
23540;DHT22;11947;50.810;4.394;2023-03-24T03:43:43;10.60;99.90
23540;DHT22;11947;50.810;4.394;2023-03-24T03:46:09;10.60;99.90
23540;DHT22;11947;50.810;4.394;2023-03-24T03:48:35;10.60;99.90
23540;DHT22;11947;50.810;4.394;2023-03-24T03:51:01;10.60;99.90
23540;DHT22;11947;50.810;4.394;2023-03-24T03:53:49;10.70;99.90
23540;DHT22;11947;50.810;4.394;2023-03-24T03:56:23;10.70;99.90
23540;DHT22;11947;50.810;4.394;2023-03-24T03:58:49;10.70;99.90
23540;DHT22;11947;50.810;4.394;2023-03-24T04:01:17;10.70;99.90
23540;DHT22;11947;50.810;4.394;2023-03-24T04:04:15;10.60;99.90
23540;DHT22;11947;50.810;4.394;2023-03-24T04:07:07;10.60;99.90
23540;DHT22;11947;50.810;4.394;2023-03-24T04:09:54;10.70;99.90
23540;DHT22;11947;50.810;4.394;2023-03-24T04:15:18;10.80;99.90
23540;DHT22;11947;50.810;4.394;2023-03-24T04:18:01;10.70;99.90
23540;DHT22;11947;50.810;4.394;2023-03-24T04:20:33;10.90;99.90
23540;DHT22;11947;50.810;4.394;2023-03-24T04:23:27;11.00;99.90
23540;DHT22;11947;50.810;4.394;2023-03-24T04:29:16;10.80;99.90
23540;DHT22;11947;50.810;4.394;2023-03-24T04:31:50;10.70;99.90
23540;DHT22;11947;50.810;4.394;2023-03-24T04:34:26;10.70;99.90
23540;DHT22;11947;50.810;4.394;2023-03-24T04:37:12;10.70;99.90
23540;DHT22;11947;50.810;4.394;2023-03-24T04:39:42;10.80;99.90
23540;DHT22;11947;50.810;4.394;2023-03-24T04:42:16;10.80;99.90
23540;DHT22;11947;50.810;4.394;2023-03-24T04:44:42;10.90;99.90
23540;DHT22;11947;50.810;4.394;2023-03-24T04:47:09;10.90;99.90
23540;DHT22;11947;50.810;4.394;2023-03-24T04:49:37;10.90;99.90
23540;DHT22;11947;50.810;4.394;2023-03-24T04:52:04;10.80;99.90
23540;DHT22;11947;50.810;4.394;2023-03-24T04:54:31;10.90;99.90
23540;DHT22;11947;50.810;4.394;2023-03-24T04:56:58;10.90;99.90
23540;DHT22;11947;50.810;4.394;2023-03-24T04:59:26;10.90;99.90
23540;DHT22;11947;50.810;4.394;2023-03-24T05:01:52;10.70;99.90
23540;DHT22;11947;50.810;4.394;2023-03-24T05:04:23;10.50;99.90
23540;DHT22;11947;50.810;4.394;2023-03-24T05:06:49;10.50;99.90
23540;DHT22;11947;50.810;4.394;2023-03-24T05:09:19;10.50;99.90
23540;DHT22;11947;50.810;4.394;2023-03-24T05:11:48;10.20;99.90
23540;DHT22;11947;50.810;4.394;2023-03-24T05:14:14;10.30;99.90
23540;DHT22;11947;50.810;4.394;2023-03-24T05:16:40;10.30;99.90
23540;DHT22;11947;50.810;4.394;2023-03-24T05:19:07;10.10;99.90
23540;DHT22;11947;50.810;4.394;2023-03-24T05:21:33;10.20;99.90
23540;DHT22;11947;50.810;4.394;2023-03-24T05:23:59;10.10;99.90
23540;DHT22;11947;50.810;4.394;2023-03-24T05:26:25;10.20;99.90
23540;DHT22;11947;50.810;4.394;2023-03-24T05:28:51;10.30;99.90
23540;DHT22;11947;50.810;4.394;2023-03-24T05:31:17;10.30;99.90
23540;DHT22;11947;50.810;4.394;2023-03-24T05:33:43;10.20;99.90
23540;DHT22;11947;50.810;4.394;2023-03-24T05:36:09;10.30;99.90
23540;DHT22;11947;50.810;4.394;2023-03-24T05:38:34;10.20;99.90
23540;DHT22;11947;50.810;4.394;2023-03-24T05:41:00;10.30;99.90
23540;DHT22;11947;50.810;4.394;2023-03-24T05:43:26;10.20;99.90
23540;DHT22;11947;50.810;4.394;2023-03-24T05:45:52;10.10;99.90
23540;DHT22;11947;50.810;4.394;2023-03-24T05:48:18;10.10;99.90
23540;DHT22;11947;50.810;4.394;2023-03-24T05:50:44;10.10;99.90
23540;DHT22;11947;50.810;4.394;2023-03-24T05:53:09;10.10;99.90
23540;DHT22;11947;50.810;4.394;2023-03-24T05:55:35;9.90;99.90
23540;DHT22;11947;50.810;4.394;2023-03-24T05:58:02;10.00;99.90
23540;DHT22;11947;50.810;4.394;2023-03-24T06:00:31;10.00;99.90
23540;DHT22;11947;50.810;4.394;2023-03-24T06:02:58;10.10;99.90
23540;DHT22;11947;50.810;4.394;2023-03-24T06:05:24;9.90;99.90
23540;DHT22;11947;50.810;4.394;2023-03-24T06:07:51;9.90;99.90
23540;DHT22;11947;50.810;4.394;2023-03-24T06:10:23;9.80;99.90
23540;DHT22;11947;50.810;4.394;2023-03-24T06:12:50;10.00;99.90
23540;DHT22;11947;50.810;4.394;2023-03-24T06:15:16;10.30;99.90
23540;DHT22;11947;50.810;4.394;2023-03-24T06:17:42;10.30;99.90
23540;DHT22;11947;50.810;4.394;2023-03-24T06:20:09;10.50;99.90
23540;DHT22;11947;50.810;4.394;2023-03-24T06:22:40;10.60;99.90
23540;DHT22;11947;50.810;4.394;2023-03-24T06:25:07;10.60;99.90
23540;DHT22;11947;50.810;4.394;2023-03-24T06:27:34;10.70;99.90
23540;DHT22;11947;50.810;4.394;2023-03-24T06:30:00;10.70;99.90
23540;DHT22;11947;50.810;4.394;2023-03-24T06:32:26;10.90;99.90
23540;DHT22;11947;50.810;4.394;2023-03-24T06:34:52;11.00;99.90
23540;DHT22;11947;50.810;4.394;2023-03-24T06:37:20;11.00;99.90
23540;DHT22;11947;50.810;4.394;2023-03-24T06:39:45;11.20;99.90
23540;DHT22;11947;50.810;4.394;2023-03-24T06:42:12;11.10;99.90
23540;DHT22;11947;50.810;4.394;2023-03-24T06:44:37;11.10;99.90
23540;DHT22;11947;50.810;4.394;2023-03-24T06:47:03;11.10;99.90
23540;DHT22;11947;50.810;4.394;2023-03-24T06:49:29;11.10;99.90
23540;DHT22;11947;50.810;4.394;2023-03-24T06:51:55;11.30;99.90
23540;DHT22;11947;50.810;4.394;2023-03-24T06:54:21;11.30;99.90
23540;DHT22;11947;50.810;4.394;2023-03-24T06:56:47;11.20;99.90
23540;DHT22;11947;50.810;4.394;2023-03-24T06:59:12;11.30;99.90
23540;DHT22;11947;50.810;4.394;2023-03-24T07:01:38;11.30;99.90
23540;DHT22;11947;50.810;4.394;2023-03-24T07:04:04;11.20;99.90
23540;DHT22;11947;50.810;4.394;2023-03-24T07:06:30;11.20;99.90
23540;DHT22;11947;50.810;4.394;2023-03-24T07:08:56;11.50;99.90
23540;DHT22;11947;50.810;4.394;2023-03-24T07:11:22;11.60;99.90
23540;DHT22;11947;50.810;4.394;2023-03-24T07:13:49;11.90;99.90
23540;DHT22;11947;50.810;4.394;2023-03-24T07:16:14;12.00;99.90
23540;DHT22;11947;50.810;4.394;2023-03-24T07:18:40;12.20;99.90
23540;DHT22;11947;50.810;4.394;2023-03-24T07:21:06;12.30;99.90
23540;DHT22;11947;50.810;4.394;2023-03-24T07:23:32;12.20;99.90
23540;DHT22;11947;50.810;4.394;2023-03-24T07:25:58;11.90;99.90
23540;DHT22;11947;50.810;4.394;2023-03-24T07:28:24;11.80;99.90
23540;DHT22;11947;50.810;4.394;2023-03-24T07:30:49;12.10;99.90
23540;DHT22;11947;50.810;4.394;2023-03-24T07:33:15;12.00;99.90
23540;DHT22;11947;50.810;4.394;2023-03-24T07:35:41;12.20;99.90
23540;DHT22;11947;50.810;4.394;2023-03-24T07:38:07;12.20;99.90
23540;DHT22;11947;50.810;4.394;2023-03-24T07:40:33;12.50;99.90
23540;DHT22;11947;50.810;4.394;2023-03-24T07:43:03;12.80;99.90
23540;DHT22;11947;50.810;4.394;2023-03-24T07:45:30;12.80;99.90
23540;DHT22;11947;50.810;4.394;2023-03-24T07:47:56;12.90;99.90
23540;DHT22;11947;50.810;4.394;2023-03-24T07:50:29;13.00;99.90
23540;DHT22;11947;50.810;4.394;2023-03-24T07:52:55;13.00;99.90
23540;DHT22;11947;50.810;4.394;2023-03-24T07:55:21;12.90;99.90
23540;DHT22;11947;50.810;4.394;2023-03-24T07:57:48;12.90;99.90
23540;DHT22;11947;50.810;4.394;2023-03-24T08:00:15;13.10;99.90
23540;DHT22;11947;50.810;4.394;2023-03-24T08:02:48;13.00;99.90
23540;DHT22;11947;50.810;4.394;2023-03-24T08:05:20;13.20;99.90
23540;DHT22;11947;50.810;4.394;2023-03-24T08:07:48;13.40;99.90
23540;DHT22;11947;50.810;4.394;2023-03-24T08:10:19;13.60;99.90
23540;DHT22;11947;50.810;4.394;2023-03-24T08:12:46;13.60;99.90
23540;DHT22;11947;50.810;4.394;2023-03-24T08:15:12;13.70;99.90
23540;DHT22;11947;50.810;4.394;2023-03-24T08:17:39;13.40;99.90
23540;DHT22;11947;50.810;4.394;2023-03-24T08:20:07;13.60;99.90
23540;DHT22;11947;50.810;4.394;2023-03-24T08:22:41;13.50;99.90
23540;DHT22;11947;50.810;4.394;2023-03-24T08:25:08;13.70;99.90
23540;DHT22;11947;50.810;4.394;2023-03-24T08:27:34;13.70;99.90
23540;DHT22;11947;50.810;4.394;2023-03-24T08:30:05;13.90;99.90
23540;DHT22;11947;50.810;4.394;2023-03-24T08:32:32;14.00;99.90
23540;DHT22;11947;50.810;4.394;2023-03-24T08:34:58;14.30;99.90
23540;DHT22;11947;50.810;4.394;2023-03-24T08:37:23;14.50;99.90
23540;DHT22;11947;50.810;4.394;2023-03-24T08:39:49;14.30;99.90
23540;DHT22;11947;50.810;4.394;2023-03-24T08:42:14;14.30;99.90
23540;DHT22;11947;50.810;4.394;2023-03-24T08:44:40;14.30;99.90
23540;DHT22;11947;50.810;4.394;2023-03-24T08:47:06;14.40;99.90
23540;DHT22;11947;50.810;4.394;2023-03-24T08:49:31;14.50;99.90
23540;DHT22;11947;50.810;4.394;2023-03-24T08:51:57;14.70;99.90
23540;DHT22;11947;50.810;4.394;2023-03-24T08:54:22;15.00;99.90
23540;DHT22;11947;50.810;4.394;2023-03-24T08:56:50;15.40;99.90
23540;DHT22;11947;50.810;4.394;2023-03-24T08:59:16;15.70;99.90
23540;DHT22;11947;50.810;4.394;2023-03-24T09:01:41;16.00;99.90
23540;DHT22;11947;50.810;4.394;2023-03-24T09:04:07;16.40;99.90
23540;DHT22;11947;50.810;4.394;2023-03-24T09:06:33;16.40;99.90
23540;DHT22;11947;50.810;4.394;2023-03-24T09:08:58;16.60;99.90
23540;DHT22;11947;50.810;4.394;2023-03-24T09:11:24;16.70;99.90
23540;DHT22;11947;50.810;4.394;2023-03-24T09:13:49;16.40;99.90
23540;DHT22;11947;50.810;4.394;2023-03-24T09:16:15;15.90;99.90
23540;DHT22;11947;50.810;4.394;2023-03-24T09:18:42;15.80;99.90
23540;DHT22;11947;50.810;4.394;2023-03-24T09:21:08;15.70;99.90
23540;DHT22;11947;50.810;4.394;2023-03-24T09:23:34;15.60;99.90
23540;DHT22;11947;50.810;4.394;2023-03-24T09:26:00;15.60;99.90
23540;DHT22;11947;50.810;4.394;2023-03-24T09:28:27;15.50;99.90
23540;DHT22;11947;50.810;4.394;2023-03-24T09:31:00;15.50;99.90
23540;DHT22;11947;50.810;4.394;2023-03-24T09:33:26;15.60;99.90
23540;DHT22;11947;50.810;4.394;2023-03-24T09:35:55;16.00;99.90
23540;DHT22;11947;50.810;4.394;2023-03-24T09:38:21;16.20;99.90
23540;DHT22;11947;50.810;4.394;2023-03-24T09:40:52;16.60;99.90
23540;DHT22;11947;50.810;4.394;2023-03-24T09:45:59;17.00;99.90
23540;DHT22;11947;50.810;4.394;2023-03-24T09:51:26;16.70;99.90
23540;DHT22;11947;50.810;4.394;2023-03-24T09:56:37;16.30;99.90
23540;DHT22;11947;50.810;4.394;2023-03-24T09:59:06;16.30;99.90
23540;DHT22;11947;50.810;4.394;2023-03-24T10:01:33;16.60;99.90
23540;DHT22;11947;50.810;4.394;2023-03-24T10:04:01;17.30;99.90
23540;DHT22;11947;50.810;4.394;2023-03-24T10:06:32;18.40;99.90
23540;DHT22;11947;50.810;4.394;2023-03-24T10:09:22;19.00;99.90
23540;DHT22;11947;50.810;4.394;2023-03-24T10:12:24;19.10;99.90
23540;DHT22;11947;50.810;4.394;2023-03-24T10:15:23;18.70;99.90
23540;DHT22;11947;50.810;4.394;2023-03-24T10:18:00;18.90;99.90
23540;DHT22;11947;50.810;4.394;2023-03-24T10:20:46;19.40;99.90
23540;DHT22;11947;50.810;4.394;2023-03-24T10:23:42;19.60;99.90
23540;DHT22;11947;50.810;4.394;2023-03-24T10:28:46;20.20;99.90
23540;DHT22;11947;50.810;4.394;2023-03-24T10:31:14;21.00;99.90
23540;DHT22;11947;50.810;4.394;2023-03-24T10:33:43;22.00;99.90
23540;DHT22;11947;50.810;4.394;2023-03-24T10:36:12;23.00;99.90
23540;DHT22;11947;50.810;4.394;2023-03-24T10:38:39;23.70;99.90
23540;DHT22;11947;50.810;4.394;2023-03-24T10:41:05;24.50;99.90
23540;DHT22;11947;50.810;4.394;2023-03-24T10:43:31;24.00;99.90
23540;DHT22;11947;50.810;4.394;2023-03-24T10:45:58;24.70;99.90
23540;DHT22;11947;50.810;4.394;2023-03-24T10:48:53;24.90;99.90
23540;DHT22;11947;50.810;4.394;2023-03-24T10:51:26;24.10;99.90
23540;DHT22;11947;50.810;4.394;2023-03-24T10:54:12;23.10;99.90
23540;DHT22;11947;50.810;4.394;2023-03-24T11:01:44;23.80;99.90
23540;DHT22;11947;50.810;4.394;2023-03-24T11:04:13;23.80;99.90
23540;DHT22;11947;50.810;4.394;2023-03-24T11:07:15;23.60;99.90
23540;DHT22;11947;50.810;4.394;2023-03-24T11:09:44;22.10;99.90
23540;DHT22;11947;50.810;4.394;2023-03-24T11:12:25;21.30;99.90
23540;DHT22;11947;50.810;4.394;2023-03-24T11:14:51;20.10;99.90
23540;DHT22;11947;50.810;4.394;2023-03-24T11:17:25;19.10;99.90
23540;DHT22;11947;50.810;4.394;2023-03-24T11:19:56;18.60;99.90
23540;DHT22;11947;50.810;4.394;2023-03-24T11:22:22;18.10;99.90
23540;DHT22;11947;50.810;4.394;2023-03-24T11:24:50;18.00;99.90
23540;DHT22;11947;50.810;4.394;2023-03-24T11:27:17;18.00;99.90
23540;DHT22;11947;50.810;4.394;2023-03-24T11:29:48;19.10;99.90
23540;DHT22;11947;50.810;4.394;2023-03-24T11:32:23;19.90;99.90
23540;DHT22;11947;50.810;4.394;2023-03-24T11:35:02;20.70;99.90
23540;DHT22;11947;50.810;4.394;2023-03-24T11:37:33;22.50;99.90
23540;DHT22;11947;50.810;4.394;2023-03-24T11:42:44;23.20;99.90
23540;DHT22;11947;50.810;4.394;2023-03-24T11:47:54;23.90;99.90
23540;DHT22;11947;50.810;4.394;2023-03-24T11:50:26;25.20;99.90
23540;DHT22;11947;50.810;4.394;2023-03-24T11:53:11;26.60;99.90
23540;DHT22;11947;50.810;4.394;2023-03-24T12:06:34;26.70;93.20
23540;DHT22;11947;50.810;4.394;2023-03-24T12:09:09;25.00;96.50
23540;DHT22;11947;50.810;4.394;2023-03-24T12:17:18;19.90;99.90
23540;DHT22;11947;50.810;4.394;2023-03-24T12:19:56;19.30;99.90
23540;DHT22;11947;50.810;4.394;2023-03-24T12:23:03;19.20;99.90
23540;DHT22;11947;50.810;4.394;2023-03-24T12:26:07;19.60;99.90
23540;DHT22;11947;50.810;4.394;2023-03-24T12:33:55;23.20;99.90
23540;DHT22;11947;50.810;4.394;2023-03-24T12:44:34;26.70;98.20
23540;DHT22;11947;50.810;4.394;2023-03-24T12:56:45;26.30;94.40
23540;DHT22;11947;50.810;4.394;2023-03-24T12:59:17;24.00;95.80
23540;DHT22;11947;50.810;4.394;2023-03-24T13:02:35;21.70;99.90
23540;DHT22;11947;50.810;4.394;2023-03-24T13:05:06;20.10;99.90
23540;DHT22;11947;50.810;4.394;2023-03-24T13:07:35;18.60;99.90
23540;DHT22;11947;50.810;4.394;2023-03-24T13:10:14;17.60;99.90
23540;DHT22;11947;50.810;4.394;2023-03-24T13:15:42;16.40;99.90
23540;DHT22;11947;50.810;4.394;2023-03-24T13:20:52;15.10;99.90
23540;DHT22;11947;50.810;4.394;2023-03-24T13:31:30;13.50;99.90
23540;DHT22;11947;50.810;4.394;2023-03-24T13:33:59;13.40;99.90
23540;DHT22;11947;50.810;4.394;2023-03-24T13:36:41;14.10;99.90
23540;DHT22;11947;50.810;4.394;2023-03-24T13:39:13;16.60;99.90
23540;DHT22;11947;50.810;4.394;2023-03-24T13:41:50;19.10;99.90
23540;DHT22;11947;50.810;4.394;2023-03-24T13:49:34;21.30;99.90
23540;DHT22;11947;50.810;4.394;2023-03-24T13:52:32;21.50;99.90
23540;DHT22;11947;50.810;4.394;2023-03-24T13:55:01;22.00;99.90
23540;DHT22;11947;50.810;4.394;2023-03-24T13:57:32;22.10;99.90
23540;DHT22;11947;50.810;4.394;2023-03-24T14:02:47;21.80;99.90
23540;DHT22;11947;50.810;4.394;2023-03-24T14:05:40;22.20;99.90
23540;DHT22;11947;50.810;4.394;2023-03-24T14:10:44;23.80;99.90
23540;DHT22;11947;50.810;4.394;2023-03-24T14:15:51;21.10;99.90
23540;DHT22;11947;50.810;4.394;2023-03-24T14:25:59;18.20;99.90
23540;DHT22;11947;50.810;4.394;2023-03-24T14:28:35;17.80;99.90
23540;DHT22;11947;50.810;4.394;2023-03-24T14:31:17;17.30;99.90
23540;DHT22;11947;50.810;4.394;2023-03-24T14:34:26;16.80;99.90
23540;DHT22;11947;50.810;4.394;2023-03-24T14:36:44;16.40;99.90
23540;DHT22;11947;50.810;4.394;2023-03-24T14:39:25;16.20;99.90
23540;DHT22;11947;50.810;4.394;2023-03-24T14:41:52;16.00;99.90
23540;DHT22;11947;50.810;4.394;2023-03-24T14:47:19;16.10;99.90
23540;DHT22;11947;50.810;4.394;2023-03-24T14:49:46;17.70;99.90
23540;DHT22;11947;50.810;4.394;2023-03-24T14:52:22;19.50;99.90
23540;DHT22;11947;50.810;4.394;2023-03-24T14:54:52;21.00;99.90
23540;DHT22;11947;50.810;4.394;2023-03-24T14:57:38;23.20;99.90
23540;DHT22;11947;50.810;4.394;2023-03-24T15:00:09;25.00;99.90
23540;DHT22;11947;50.810;4.394;2023-03-24T15:02:44;25.60;99.90
23540;DHT22;11947;50.810;4.394;2023-03-24T15:05:19;26.00;99.90
23540;DHT22;11947;50.810;4.394;2023-03-24T15:08:07;26.00;99.90
23540;DHT22;11947;50.810;4.394;2023-03-24T15:10:40;26.00;99.90
23540;DHT22;11947;50.810;4.394;2023-03-24T15:15:55;25.60;99.10
23540;DHT22;11947;50.810;4.394;2023-03-24T15:18:21;24.20;99.90
23540;DHT22;11947;50.810;4.394;2023-03-24T15:20:48;22.80;99.90
23540;DHT22;11947;50.810;4.394;2023-03-24T15:23:19;21.40;99.90
23540;DHT22;11947;50.810;4.394;2023-03-24T15:25:45;19.90;99.90
23540;DHT22;11947;50.810;4.394;2023-03-24T15:28:19;19.30;99.90
23540;DHT22;11947;50.810;4.394;2023-03-24T15:30:47;18.90;99.90
23540;DHT22;11947;50.810;4.394;2023-03-24T15:33:13;18.50;99.90
23540;DHT22;11947;50.810;4.394;2023-03-24T15:35:39;18.00;99.90
23540;DHT22;11947;50.810;4.394;2023-03-24T15:38:05;17.60;99.90
23540;DHT22;11947;50.810;4.394;2023-03-24T15:40:33;17.50;99.90
23540;DHT22;11947;50.810;4.394;2023-03-24T15:43:04;17.30;99.90
23540;DHT22;11947;50.810;4.394;2023-03-24T15:45:43;17.10;99.90
23540;DHT22;11947;50.810;4.394;2023-03-24T15:48:14;17.10;99.90
23540;DHT22;11947;50.810;4.394;2023-03-24T15:50:54;16.80;99.90
23540;DHT22;11947;50.810;4.394;2023-03-24T15:53:37;16.40;99.90
23540;DHT22;11947;50.810;4.394;2023-03-24T15:56:27;16.00;99.90
23540;DHT22;11947;50.810;4.394;2023-03-24T15:59:06;15.70;99.90
23540;DHT22;11947;50.810;4.394;2023-03-24T16:01:33;15.50;99.90
23540;DHT22;11947;50.810;4.394;2023-03-24T16:04:14;15.30;99.90
23540;DHT22;11947;50.810;4.394;2023-03-24T16:06:46;15.30;99.90
23540;DHT22;11947;50.810;4.394;2023-03-24T16:09:14;15.00;99.90
23540;DHT22;11947;50.810;4.394;2023-03-24T16:11:41;14.90;99.90
23540;DHT22;11947;50.810;4.394;2023-03-24T16:14:20;14.80;99.90
23540;DHT22;11947;50.810;4.394;2023-03-24T16:16:46;14.80;99.90
23540;DHT22;11947;50.810;4.394;2023-03-24T16:19:11;14.60;99.90
23540;DHT22;11947;50.810;4.394;2023-03-24T16:21:37;14.40;99.90
23540;DHT22;11947;50.810;4.394;2023-03-24T16:24:03;14.40;99.90
23540;DHT22;11947;50.810;4.394;2023-03-24T16:26:30;14.50;99.90
23540;DHT22;11947;50.810;4.394;2023-03-24T16:29:17;14.70;99.90
23540;DHT22;11947;50.810;4.394;2023-03-24T16:31:45;14.60;99.90
23540;DHT22;11947;50.810;4.394;2023-03-24T16:34:17;14.50;99.90
23540;DHT22;11947;50.810;4.394;2023-03-24T16:36:47;14.40;99.90
23540;DHT22;11947;50.810;4.394;2023-03-24T16:39:15;14.20;99.90
23540;DHT22;11947;50.810;4.394;2023-03-24T16:41:42;14.30;99.90
23540;DHT22;11947;50.810;4.394;2023-03-24T16:44:08;14.30;99.90
23540;DHT22;11947;50.810;4.394;2023-03-24T16:46:35;14.20;99.90
23540;DHT22;11947;50.810;4.394;2023-03-24T16:49:03;14.20;99.90
23540;DHT22;11947;50.810;4.394;2023-03-24T16:51:30;14.30;99.90
23540;DHT22;11947;50.810;4.394;2023-03-24T16:53:55;14.10;99.90
23540;DHT22;11947;50.810;4.394;2023-03-24T16:56:21;13.80;99.90
23540;DHT22;11947;50.810;4.394;2023-03-24T16:58:48;13.70;99.90
23540;DHT22;11947;50.810;4.394;2023-03-24T17:01:34;13.30;99.90
23540;DHT22;11947;50.810;4.394;2023-03-24T17:04:39;12.90;99.90
23540;DHT22;11947;50.810;4.394;2023-03-24T17:06:58;12.70;99.90
23540;DHT22;11947;50.810;4.394;2023-03-24T17:09:23;12.40;99.90
23540;DHT22;11947;50.810;4.394;2023-03-24T17:11:54;12.00;99.90
23540;DHT22;11947;50.810;4.394;2023-03-24T17:14:20;11.70;99.90
23540;DHT22;11947;50.810;4.394;2023-03-24T17:16:46;11.50;99.90
23540;DHT22;11947;50.810;4.394;2023-03-24T17:19:15;11.10;99.90
23540;DHT22;11947;50.810;4.394;2023-03-24T17:22:03;11.00;99.90
23540;DHT22;11947;50.810;4.394;2023-03-24T17:24:34;11.00;99.90
23540;DHT22;11947;50.810;4.394;2023-03-24T17:27:14;10.80;99.90
23540;DHT22;11947;50.810;4.394;2023-03-24T17:29:42;10.80;99.90
23540;DHT22;11947;50.810;4.394;2023-03-24T17:32:08;10.50;99.90
23540;DHT22;11947;50.810;4.394;2023-03-24T17:34:33;10.40;99.90
23540;DHT22;11947;50.810;4.394;2023-03-24T17:36:59;10.50;99.90
23540;DHT22;11947;50.810;4.394;2023-03-24T17:39:25;10.40;99.90
23540;DHT22;11947;50.810;4.394;2023-03-24T17:41:50;10.40;99.90
23540;DHT22;11947;50.810;4.394;2023-03-24T17:44:16;10.40;99.90
23540;DHT22;11947;50.810;4.394;2023-03-24T17:46:41;10.40;99.90
23540;DHT22;11947;50.810;4.394;2023-03-24T17:49:07;10.40;99.90
23540;DHT22;11947;50.810;4.394;2023-03-24T17:51:33;10.30;99.90
23540;DHT22;11947;50.810;4.394;2023-03-24T17:53:58;10.30;99.90
23540;DHT22;11947;50.810;4.394;2023-03-24T17:56:25;10.40;99.90
23540;DHT22;11947;50.810;4.394;2023-03-24T17:58:50;10.40;99.90
23540;DHT22;11947;50.810;4.394;2023-03-24T18:01:18;10.40;99.90
23540;DHT22;11947;50.810;4.394;2023-03-24T18:03:45;10.20;99.90
23540;DHT22;11947;50.810;4.394;2023-03-24T18:06:12;10.30;99.90
23540;DHT22;11947;50.810;4.394;2023-03-24T18:08:38;10.20;99.90
23540;DHT22;11947;50.810;4.394;2023-03-24T18:11:06;10.20;99.90
23540;DHT22;11947;50.810;4.394;2023-03-24T18:13:31;10.20;99.90
23540;DHT22;11947;50.810;4.394;2023-03-24T18:15:57;10.00;99.90
23540;DHT22;11947;50.810;4.394;2023-03-24T18:18:23;9.90;99.90
23540;DHT22;11947;50.810;4.394;2023-03-24T18:20:48;10.00;99.90
23540;DHT22;11947;50.810;4.394;2023-03-24T18:23:14;10.20;99.90